sensor_id;sensor_type;location;lat;lon;timestamp;temperature;humidity
26947;DHT22;14501;52.282;10.560;2023-07-31T00:02:14;15.60;99.90
26947;DHT22;14501;52.282;10.560;2023-07-31T00:04:40;15.50;99.90
26947;DHT22;14501;52.282;10.560;2023-07-31T00:07:05;15.50;99.90
26947;DHT22;14501;52.282;10.560;2023-07-31T00:09:32;15.50;99.90
26947;DHT22;14501;52.282;10.560;2023-07-31T00:14:24;15.50;99.90
26947;DHT22;14501;52.282;10.560;2023-07-31T00:16:50;15.50;99.90
26947;DHT22;14501;52.282;10.560;2023-07-31T00:19:15;15.50;99.90
26947;DHT22;14501;52.282;10.560;2023-07-31T00:21:41;15.50;99.90
26947;DHT22;14501;52.282;10.560;2023-07-31T00:24:06;15.50;99.90
26947;DHT22;14501;52.282;10.560;2023-07-31T00:26:32;15.50;99.90
26947;DHT22;14501;52.282;10.560;2023-07-31T00:28:58;15.30;99.90
26947;DHT22;14501;52.282;10.560;2023-07-31T00:31:23;16.10;99.90
26947;DHT22;14501;52.282;10.560;2023-07-31T00:33:49;15.60;99.90
26947;DHT22;14501;52.282;10.560;2023-07-31T00:36:14;15.60;99.90
26947;DHT22;14501;52.282;10.560;2023-07-31T00:38:40;15.60;99.90
26947;DHT22;14501;52.282;10.560;2023-07-31T00:41:05;15.60;99.90
26947;DHT22;14501;52.282;10.560;2023-07-31T00:43:31;15.70;99.90
26947;DHT22;14501;52.282;10.560;2023-07-31T00:45:56;15.70;99.90
26947;DHT22;14501;52.282;10.560;2023-07-31T00:48:23;15.70;99.90
26947;DHT22;14501;52.282;10.560;2023-07-31T00:50:49;15.70;99.90
26947;DHT22;14501;52.282;10.560;2023-07-31T00:53:15;15.80;99.90
26947;DHT22;14501;52.282;10.560;2023-07-31T00:55:40;15.80;99.90
26947;DHT22;14501;52.282;10.560;2023-07-31T00:58:06;15.80;99.90
26947;DHT22;14501;52.282;10.560;2023-07-31T01:00:32;15.80;99.90
26947;DHT22;14501;52.282;10.560;2023-07-31T01:02:57;15.80;99.90
26947;DHT22;14501;52.282;10.560;2023-07-31T01:05:39;15.70;99.90
26947;DHT22;14501;52.282;10.560;2023-07-31T01:08:42;15.80;99.90
26947;DHT22;14501;52.282;10.560;2023-07-31T01:11:15;15.70;99.90
26947;DHT22;14501;52.282;10.560;2023-07-31T01:13:44;15.70;99.90
26947;DHT22;14501;52.282;10.560;2023-07-31T01:16:09;15.70;99.90
26947;DHT22;14501;52.282;10.560;2023-07-31T01:18:35;15.70;99.90
26947;DHT22;14501;52.282;10.560;2023-07-31T01:26:30;15.50;99.90
26947;DHT22;14501;52.282;10.560;2023-07-31T01:29:10;15.50;99.90
26947;DHT22;14501;52.282;10.560;2023-07-31T01:31:39;15.50;99.90
26947;DHT22;14501;52.282;10.560;2023-07-31T01:34:06;15.40;99.90
26947;DHT22;14501;52.282;10.560;2023-07-31T01:36:33;15.40;99.90
26947;DHT22;14501;52.282;10.560;2023-07-31T01:39:02;15.50;99.90
26947;DHT22;14501;52.282;10.560;2023-07-31T01:41:28;15.40;99.90
26947;DHT22;14501;52.282;10.560;2023-07-31T01:43:54;15.40;99.90
26947;DHT22;14501;52.282;10.560;2023-07-31T01:46:19;15.40;99.90
26947;DHT22;14501;52.282;10.560;2023-07-31T01:48:45;14.90;99.90
26947;DHT22;14501;52.282;10.560;2023-07-31T01:51:10;15.40;99.90
26947;DHT22;14501;52.282;10.560;2023-07-31T01:53:36;15.80;99.90
26947;DHT22;14501;52.282;10.560;2023-07-31T01:56:01;15.40;99.90
26947;DHT22;14501;52.282;10.560;2023-07-31T01:58:27;15.40;99.90
26947;DHT22;14501;52.282;10.560;2023-07-31T02:00:53;15.30;99.90
26947;DHT22;14501;52.282;10.560;2023-07-31T02:03:18;15.30;99.90
26947;DHT22;14501;52.282;10.560;2023-07-31T02:05:48;15.30;99.90
26947;DHT22;14501;52.282;10.560;2023-07-31T02:08:14;15.30;99.90
26947;DHT22;14501;52.282;10.560;2023-07-31T02:10:40;15.30;99.90
26947;DHT22;14501;52.282;10.560;2023-07-31T02:13:06;15.30;99.90
26947;DHT22;14501;52.282;10.560;2023-07-31T02:15:31;15.30;99.90
26947;DHT22;14501;52.282;10.560;2023-07-31T02:17:57;15.20;99.90
26947;DHT22;14501;52.282;10.560;2023-07-31T02:20:23;15.20;99.90
26947;DHT22;14501;52.282;10.560;2023-07-31T02:22:48;15.20;99.90
26947;DHT22;14501;52.282;10.560;2023-07-31T02:25:14;15.20;99.90
26947;DHT22;14501;52.282;10.560;2023-07-31T02:27:39;15.10;99.90
26947;DHT22;14501;52.282;10.560;2023-07-31T02:30:05;15.10;99.90
26947;DHT22;14501;52.282;10.560;2023-07-31T02:32:31;15.10;99.90
26947;DHT22;14501;52.282;10.560;2023-07-31T02:34:57;15.10;99.90
26947;DHT22;14501;52.282;10.560;2023-07-31T02:37:23;15.10;99.90
26947;DHT22;14501;52.282;10.560;2023-07-31T02:39:48;15.10;99.90
26947;DHT22;14501;52.282;10.560;2023-07-31T02:42:14;15.10;99.90
26947;DHT22;14501;52.282;10.560;2023-07-31T02:44:40;15.10;99.90
26947;DHT22;14501;52.282;10.560;2023-07-31T02:47:06;15.10;99.90
26947;DHT22;14501;52.282;10.560;2023-07-31T02:49:31;15.10;99.90
26947;DHT22;14501;52.282;10.560;2023-07-31T02:51:57;15.10;99.90
26947;DHT22;14501;52.282;10.560;2023-07-31T02:54:22;15.10;99.90
26947;DHT22;14501;52.282;10.560;2023-07-31T02:56:48;15.10;99.90
26947;DHT22;14501;52.282;10.560;2023-07-31T03:01:40;15.10;99.90
26947;DHT22;14501;52.282;10.560;2023-07-31T03:04:06;15.10;99.90
26947;DHT22;14501;52.282;10.560;2023-07-31T03:06:32;15.10;99.90
26947;DHT22;14501;52.282;10.560;2023-07-31T03:08:57;14.60;99.90
26947;DHT22;14501;52.282;10.560;2023-07-31T03:11:23;15.10;99.90
26947;DHT22;14501;52.282;10.560;2023-07-31T03:13:48;14.80;99.90
26947;DHT22;14501;52.282;10.560;2023-07-31T03:16:14;15.10;99.90
26947;DHT22;14501;52.282;10.560;2023-07-31T03:18:39;15.10;99.90
26947;DHT22;14501;52.282;10.560;2023-07-31T03:21:05;15.10;99.90
26947;DHT22;14501;52.282;10.560;2023-07-31T03:23:30;15.10;99.90
26947;DHT22;14501;52.282;10.560;2023-07-31T03:26:00;15.10;99.90
26947;DHT22;14501;52.282;10.560;2023-07-31T03:28:26;15.10;99.90
26947;DHT22;14501;52.282;10.560;2023-07-31T03:30:52;15.10;99.90
26947;DHT22;14501;52.282;10.560;2023-07-31T03:33:18;15.20;99.90
26947;DHT22;14501;52.282;10.560;2023-07-31T03:35:44;15.20;99.90
26947;DHT22;14501;52.282;10.560;2023-07-31T03:38:10;15.20;99.90
26947;DHT22;14501;52.282;10.560;2023-07-31T03:40:35;15.20;99.90
26947;DHT22;14501;52.282;10.560;2023-07-31T03:43:01;15.20;99.90
26947;DHT22;14501;52.282;10.560;2023-07-31T03:45:26;15.20;99.90
26947;DHT22;14501;52.282;10.560;2023-07-31T03:47:52;15.20;99.90
26947;DHT22;14501;52.282;10.560;2023-07-31T03:50:18;15.20;99.90
26947;DHT22;14501;52.282;10.560;2023-07-31T03:52:44;15.20;99.90
26947;DHT22;14501;52.282;10.560;2023-07-31T03:55:10;15.20;99.90
26947;DHT22;14501;52.282;10.560;2023-07-31T03:57:35;15.20;99.90
26947;DHT22;14501;52.282;10.560;2023-07-31T04:00:01;15.20;99.90
26947;DHT22;14501;52.282;10.560;2023-07-31T04:02:26;15.20;99.90
26947;DHT22;14501;52.282;10.560;2023-07-31T04:04:52;15.20;99.90
26947;DHT22;14501;52.282;10.560;2023-07-31T04:07:17;15.20;99.90
26947;DHT22;14501;52.282;10.560;2023-07-31T04:09:43;15.20;99.90
26947;DHT22;14501;52.282;10.560;2023-07-31T04:12:08;15.20;99.90
26947;DHT22;14501;52.282;10.560;2023-07-31T04:14:34;15.20;99.90
26947;DHT22;14501;52.282;10.560;2023-07-31T04:16:59;15.20;99.90
26947;DHT22;14501;52.282;10.560;2023-07-31T04:19:25;15.20;99.90
26947;DHT22;14501;52.282;10.560;2023-07-31T04:21:51;15.20;99.90
26947;DHT22;14501;52.282;10.560;2023-07-31T04:24:16;15.30;99.90
26947;DHT22;14501;52.282;10.560;2023-07-31T04:26:47;15.30;99.90
26947;DHT22;14501;52.282;10.560;2023-07-31T04:29:13;15.70;99.90
26947;DHT22;14501;52.282;10.560;2023-07-31T04:34:04;15.30;99.90
26947;DHT22;14501;52.282;10.560;2023-07-31T04:36:30;15.30;99.90
26947;DHT22;14501;52.282;10.560;2023-07-31T04:38:55;15.30;99.90
26947;DHT22;14501;52.282;10.560;2023-07-31T04:41:21;15.50;99.90
26947;DHT22;14501;52.282;10.560;2023-07-31T04:43:47;15.30;99.90
26947;DHT22;14501;52.282;10.560;2023-07-31T04:46:12;15.30;99.90
26947;DHT22;14501;52.282;10.560;2023-07-31T04:48:38;15.30;99.90
26947;DHT22;14501;52.282;10.560;2023-07-31T04:51:03;15.30;99.90
26947;DHT22;14501;52.282;10.560;2023-07-31T04:53:29;15.30;99.90
26947;DHT22;14501;52.282;10.560;2023-07-31T04:55:54;15.20;99.90
26947;DHT22;14501;52.282;10.560;2023-07-31T04:58:20;15.80;99.90
26947;DHT22;14501;52.282;10.560;2023-07-31T05:00:45;15.30;99.90
26947;DHT22;14501;52.282;10.560;2023-07-31T05:03:11;15.20;99.90
26947;DHT22;14501;52.282;10.560;2023-07-31T05:08:03;15.20;99.90
26947;DHT22;14501;52.282;10.560;2023-07-31T05:10:28;15.10;99.90
26947;DHT22;14501;52.282;10.560;2023-07-31T05:12:54;15.10;99.90
26947;DHT22;14501;52.282;10.560;2023-07-31T05:15:19;15.10;99.90
26947;DHT22;14501;52.282;10.560;2023-07-31T05:17:45;15.00;99.90
26947;DHT22;14501;52.282;10.560;2023-07-31T05:20:11;15.00;99.90
26947;DHT22;14501;52.282;10.560;2023-07-31T05:22:36;15.00;99.90
26947;DHT22;14501;52.282;10.560;2023-07-31T05:25:02;14.90;99.90
26947;DHT22;14501;52.282;10.560;2023-07-31T05:27:28;14.90;99.90
26947;DHT22;14501;52.282;10.560;2023-07-31T05:29:53;14.90;99.90
26947;DHT22;14501;52.282;10.560;2023-07-31T05:32:19;15.00;99.90
26947;DHT22;14501;52.282;10.560;2023-07-31T05:34:44;15.00;99.90
26947;DHT22;14501;52.282;10.560;2023-07-31T05:37:10;15.00;99.90
26947;DHT22;14501;52.282;10.560;2023-07-31T05:39:37;15.00;99.90
26947;DHT22;14501;52.282;10.560;2023-07-31T05:42:02;15.00;99.90
26947;DHT22;14501;52.282;10.560;2023-07-31T05:44:28;15.00;99.90
26947;DHT22;14501;52.282;10.560;2023-07-31T05:46:54;15.10;99.90
26947;DHT22;14501;52.282;10.560;2023-07-31T05:49:19;15.00;99.90
26947;DHT22;14501;52.282;10.560;2023-07-31T05:51:45;15.10;99.90
26947;DHT22;14501;52.282;10.560;2023-07-31T05:54:10;14.60;99.90
26947;DHT22;14501;52.282;10.560;2023-07-31T05:56:36;15.10;99.90
26947;DHT22;14501;52.282;10.560;2023-07-31T05:59:01;14.60;99.90
26947;DHT22;14501;52.282;10.560;2023-07-31T06:01:28;15.10;99.90
26947;DHT22;14501;52.282;10.560;2023-07-31T06:03:53;15.10;99.90
26947;DHT22;14501;52.282;10.560;2023-07-31T06:06:19;15.20;99.90
26947;DHT22;14501;52.282;10.560;2023-07-31T06:08:45;15.30;99.90
26947;DHT22;14501;52.282;10.560;2023-07-31T06:13:36;15.30;99.90
26947;DHT22;14501;52.282;10.560;2023-07-31T06:18:32;15.50;99.90
26947;DHT22;14501;52.282;10.560;2023-07-31T06:20:58;15.50;99.90
26947;DHT22;14501;52.282;10.560;2023-07-31T06:25:49;16.00;99.90
26947;DHT22;14501;52.282;10.560;2023-07-31T06:28:15;15.90;99.90
26947;DHT22;14501;52.282;10.560;2023-07-31T06:30:41;16.10;99.90
26947;DHT22;14501;52.282;10.560;2023-07-31T06:33:06;16.20;99.90
26947;DHT22;14501;52.282;10.560;2023-07-31T06:35:32;16.30;99.90
26947;DHT22;14501;52.282;10.560;2023-07-31T06:37:57;16.60;99.90
26947;DHT22;14501;52.282;10.560;2023-07-31T06:40:23;16.70;99.90
26947;DHT22;14501;52.282;10.560;2023-07-31T06:42:48;16.80;99.90
26947;DHT22;14501;52.282;10.560;2023-07-31T06:45:14;16.80;99.90
26947;DHT22;14501;52.282;10.560;2023-07-31T06:47:40;16.70;99.90
26947;DHT22;14501;52.282;10.560;2023-07-31T06:50:06;16.80;99.90
26947;DHT22;14501;52.282;10.560;2023-07-31T06:52:32;16.80;99.90
26947;DHT22;14501;52.282;10.560;2023-07-31T06:55:16;16.90;99.90
26947;DHT22;14501;52.282;10.560;2023-07-31T06:57:44;17.00;99.90
26947;DHT22;14501;52.282;10.560;2023-07-31T07:00:10;17.10;99.90
26947;DHT22;14501;52.282;10.560;2023-07-31T07:02:35;17.30;99.90
26947;DHT22;14501;52.282;10.560;2023-07-31T07:05:01;17.40;99.90
26947;DHT22;14501;52.282;10.560;2023-07-31T07:07:26;17.30;99.90
26947;DHT22;14501;52.282;10.560;2023-07-31T07:09:52;17.20;99.90
26947;DHT22;14501;52.282;10.560;2023-07-31T07:12:18;17.30;99.90
26947;DHT22;14501;52.282;10.560;2023-07-31T07:14:43;17.20;99.90
26947;DHT22;14501;52.282;10.560;2023-07-31T07:17:11;17.20;99.90
26947;DHT22;14501;52.282;10.560;2023-07-31T07:19:39;17.10;99.90
26947;DHT22;14501;52.282;10.560;2023-07-31T07:22:05;17.10;99.90
26947;DHT22;14501;52.282;10.560;2023-07-31T07:24:31;17.10;99.90
26947;DHT22;14501;52.282;10.560;2023-07-31T07:26:56;16.90;99.90
26947;DHT22;14501;52.282;10.560;2023-07-31T07:29:22;16.90;99.90
26947;DHT22;14501;52.282;10.560;2023-07-31T07:31:48;16.80;99.90
26947;DHT22;14501;52.282;10.560;2023-07-31T07:34:13;16.80;99.90
26947;DHT22;14501;52.282;10.560;2023-07-31T07:36:39;16.80;99.90
26947;DHT22;14501;52.282;10.560;2023-07-31T07:39:04;16.80;99.90
26947;DHT22;14501;52.282;10.560;2023-07-31T07:43:56;16.70;99.90
26947;DHT22;14501;52.282;10.560;2023-07-31T07:46:22;16.70;99.90
26947;DHT22;14501;52.282;10.560;2023-07-31T07:48:48;16.60;99.90
26947;DHT22;14501;52.282;10.560;2023-07-31T07:51:14;16.70;99.90
26947;DHT22;14501;52.282;10.560;2023-07-31T07:53:39;16.70;99.90
26947;DHT22;14501;52.282;10.560;2023-07-31T07:56:05;16.70;99.90
26947;DHT22;14501;52.282;10.560;2023-07-31T07:58:30;16.70;99.90
26947;DHT22;14501;52.282;10.560;2023-07-31T08:03:22;16.90;99.90
26947;DHT22;14501;52.282;10.560;2023-07-31T08:05:48;16.90;99.90
26947;DHT22;14501;52.282;10.560;2023-07-31T08:08:16;16.90;99.90
26947;DHT22;14501;52.282;10.560;2023-07-31T08:10:42;17.00;99.90
26947;DHT22;14501;52.282;10.560;2023-07-31T08:13:09;16.90;99.90
26947;DHT22;14501;52.282;10.560;2023-07-31T08:15:34;17.20;99.90
26947;DHT22;14501;52.282;10.560;2023-07-31T08:18:00;17.20;99.90
26947;DHT22;14501;52.282;10.560;2023-07-31T08:20:26;18.60;99.90
26947;DHT22;14501;52.282;10.560;2023-07-31T08:22:52;20.40;99.90
26947;DHT22;14501;52.282;10.560;2023-07-31T08:25:18;21.10;99.90
26947;DHT22;14501;52.282;10.560;2023-07-31T08:27:44;21.10;99.90
26947;DHT22;14501;52.282;10.560;2023-07-31T08:30:11;21.30;99.90
26947;DHT22;14501;52.282;10.560;2023-07-31T08:32:37;21.30;99.90
26947;DHT22;14501;52.282;10.560;2023-07-31T08:35:02;21.60;99.90
26947;DHT22;14501;52.282;10.560;2023-07-31T08:37:28;22.10;99.90
26947;DHT22;14501;52.282;10.560;2023-07-31T08:39:54;22.30;99.90
26947;DHT22;14501;52.282;10.560;2023-07-31T08:42:20;21.90;99.90
26947;DHT22;14501;52.282;10.560;2023-07-31T08:44:46;20.50;99.90
26947;DHT22;14501;52.282;10.560;2023-07-31T08:47:12;20.40;99.90
26947;DHT22;14501;52.282;10.560;2023-07-31T08:49:39;20.00;99.90
26947;DHT22;14501;52.282;10.560;2023-07-31T08:52:06;19.50;99.90
26947;DHT22;14501;52.282;10.560;2023-07-31T08:54:32;19.30;99.90
26947;DHT22;14501;52.282;10.560;2023-07-31T08:56:59;19.10;99.90
26947;DHT22;14501;52.282;10.560;2023-07-31T08:59:30;18.90;99.90
26947;DHT22;14501;52.282;10.560;2023-07-31T09:01:58;18.70;99.90
26947;DHT22;14501;52.282;10.560;2023-07-31T09:04:26;18.60;99.90
26947;DHT22;14501;52.282;10.560;2023-07-31T09:06:56;18.30;99.90
26947;DHT22;14501;52.282;10.560;2023-07-31T09:09:23;18.30;99.90
26947;DHT22;14501;52.282;10.560;2023-07-31T09:11:49;18.30;99.90
26947;DHT22;14501;52.282;10.560;2023-07-31T09:14:15;18.40;99.90
26947;DHT22;14501;52.282;10.560;2023-07-31T09:16:58;18.40;99.90
26947;DHT22;14501;52.282;10.560;2023-07-31T09:19:33;18.40;99.90
26947;DHT22;14501;52.282;10.560;2023-07-31T09:22:00;18.40;99.90
26947;DHT22;14501;52.282;10.560;2023-07-31T09:24:30;18.40;99.90
26947;DHT22;14501;52.282;10.560;2023-07-31T09:26:56;18.30;99.90
26947;DHT22;14501;52.282;10.560;2023-07-31T09:29:23;18.40;99.90
26947;DHT22;14501;52.282;10.560;2023-07-31T09:31:48;18.60;99.90
26947;DHT22;14501;52.282;10.560;2023-07-31T09:34:14;18.60;99.90
26947;DHT22;14501;52.282;10.560;2023-07-31T09:36:44;18.70;99.90
26947;DHT22;14501;52.282;10.560;2023-07-31T09:39:11;18.70;99.90
26947;DHT22;14501;52.282;10.560;2023-07-31T09:41:43;18.70;99.90
26947;DHT22;14501;52.282;10.560;2023-07-31T09:44:09;18.70;99.90
26947;DHT22;14501;52.282;10.560;2023-07-31T09:46:35;18.60;99.90
26947;DHT22;14501;52.282;10.560;2023-07-31T09:49:12;18.40;99.90
26947;DHT22;14501;52.282;10.560;2023-07-31T09:51:39;18.40;99.90
26947;DHT22;14501;52.282;10.560;2023-07-31T09:54:16;18.40;99.90
26947;DHT22;14501;52.282;10.560;2023-07-31T09:56:49;18.20;99.90
26947;DHT22;14501;52.282;10.560;2023-07-31T09:59:16;18.20;99.90
26947;DHT22;14501;52.282;10.560;2023-07-31T10:01:44;18.20;99.90
26947;DHT22;14501;52.282;10.560;2023-07-31T10:04:11;18.20;99.90
26947;DHT22;14501;52.282;10.560;2023-07-31T10:06:37;18.20;99.90
26947;DHT22;14501;52.282;10.560;2023-07-31T10:09:07;18.20;99.90
26947;DHT22;14501;52.282;10.560;2023-07-31T10:11:39;18.20;99.90
26947;DHT22;14501;52.282;10.560;2023-07-31T10:14:07;18.20;99.90
26947;DHT22;14501;52.282;10.560;2023-07-31T10:16:37;18.20;99.90
26947;DHT22;14501;52.282;10.560;2023-07-31T10:19:03;18.20;99.90
26947;DHT22;14501;52.282;10.560;2023-07-31T10:21:31;18.20;99.90
26947;DHT22;14501;52.282;10.560;2023-07-31T10:24:02;18.20;99.90
26947;DHT22;14501;52.282;10.560;2023-07-31T10:26:29;18.60;99.90
26947;DHT22;14501;52.282;10.560;2023-07-31T10:28:57;19.10;99.90
26947;DHT22;14501;52.282;10.560;2023-07-31T10:31:23;19.10;99.90
26947;DHT22;14501;52.282;10.560;2023-07-31T10:36:20;19.40;99.90
26947;DHT22;14501;52.282;10.560;2023-07-31T10:38:48;19.40;99.90
26947;DHT22;14501;52.282;10.560;2023-07-31T10:41:14;19.70;99.90
26947;DHT22;14501;52.282;10.560;2023-07-31T10:43:40;19.90;99.90
26947;DHT22;14501;52.282;10.560;2023-07-31T10:46:12;20.60;99.90
26947;DHT22;14501;52.282;10.560;2023-07-31T10:48:39;20.70;99.90
26947;DHT22;14501;52.282;10.560;2023-07-31T10:51:11;20.80;99.90
26947;DHT22;14501;52.282;10.560;2023-07-31T10:53:41;20.80;99.90
26947;DHT22;14501;52.282;10.560;2023-07-31T10:56:10;20.90;99.90
26947;DHT22;14501;52.282;10.560;2023-07-31T10:58:44;20.80;99.90
26947;DHT22;14501;52.282;10.560;2023-07-31T11:01:11;21.00;99.90
26947;DHT22;14501;52.282;10.560;2023-07-31T11:03:50;21.20;99.90
26947;DHT22;14501;52.282;10.560;2023-07-31T11:06:18;21.40;99.90
26947;DHT22;14501;52.282;10.560;2023-07-31T11:08:49;21.40;99.90
26947;DHT22;14501;52.282;10.560;2023-07-31T11:11:17;21.70;99.90
26947;DHT22;14501;52.282;10.560;2023-07-31T11:13:48;22.10;99.90
26947;DHT22;14501;52.282;10.560;2023-07-31T11:16:15;22.60;99.90
26947;DHT22;14501;52.282;10.560;2023-07-31T11:18:43;23.00;99.90
26947;DHT22;14501;52.282;10.560;2023-07-31T11:21:16;23.40;99.90
26947;DHT22;14501;52.282;10.560;2023-07-31T11:23:49;23.50;99.90
26947;DHT22;14501;52.282;10.560;2023-07-31T11:26:15;23.40;99.90
26947;DHT22;14501;52.282;10.560;2023-07-31T11:28:41;23.30;99.90
26947;DHT22;14501;52.282;10.560;2023-07-31T11:31:10;23.80;99.90
26947;DHT22;14501;52.282;10.560;2023-07-31T11:33:36;24.00;99.90
26947;DHT22;14501;52.282;10.560;2023-07-31T11:36:02;24.70;99.90
26947;DHT22;14501;52.282;10.560;2023-07-31T11:38:29;24.80;99.90
26947;DHT22;14501;52.282;10.560;2023-07-31T11:40:58;25.00;99.90
26947;DHT22;14501;52.282;10.560;2023-07-31T11:43:24;24.90;99.90
26947;DHT22;14501;52.282;10.560;2023-07-31T11:45:53;24.60;99.90
26947;DHT22;14501;52.282;10.560;2023-07-31T11:48:27;24.50;99.90
26947;DHT22;14501;52.282;10.560;2023-07-31T11:50:57;24.10;99.90
26947;DHT22;14501;52.282;10.560;2023-07-31T11:53:33;23.60;99.90
26947;DHT22;14501;52.282;10.560;2023-07-31T11:56:01;23.00;99.90
26947;DHT22;14501;52.282;10.560;2023-07-31T11:58:31;23.00;99.90
26947;DHT22;14501;52.282;10.560;2023-07-31T12:00:58;22.80;99.90
26947;DHT22;14501;52.282;10.560;2023-07-31T12:03:25;22.60;99.90
26947;DHT22;14501;52.282;10.560;2023-07-31T12:05:53;22.40;99.90
26947;DHT22;14501;52.282;10.560;2023-07-31T12:08:21;22.40;99.90
26947;DHT22;14501;52.282;10.560;2023-07-31T12:10:46;22.10;99.90
26947;DHT22;14501;52.282;10.560;2023-07-31T12:13:25;21.90;99.90
26947;DHT22;14501;52.282;10.560;2023-07-31T12:15:55;21.50;99.90
26947;DHT22;14501;52.282;10.560;2023-07-31T12:18:23;21.50;99.90
26947;DHT22;14501;52.282;10.560;2023-07-31T12:20:57;21.50;99.90
26947;DHT22;14501;52.282;10.560;2023-07-31T12:23:25;21.50;99.90
26947;DHT22;14501;52.282;10.560;2023-07-31T12:26:05;21.70;99.90
26947;DHT22;14501;52.282;10.560;2023-07-31T12:31:08;22.00;99.90
26947;DHT22;14501;52.282;10.560;2023-07-31T12:33:35;22.20;99.90
26947;DHT22;14501;52.282;10.560;2023-07-31T12:36:02;22.60;99.90
26947;DHT22;14501;52.282;10.560;2023-07-31T12:38:29;22.60;99.90
26947;DHT22;14501;52.282;10.560;2023-07-31T12:40:55;22.50;99.90
26947;DHT22;14501;52.282;10.560;2023-07-31T12:43:20;22.30;99.90
26947;DHT22;14501;52.282;10.560;2023-07-31T12:45:46;21.80;99.90
26947;DHT22;14501;52.282;10.560;2023-07-31T12:48:13;21.80;99.90
26947;DHT22;14501;52.282;10.560;2023-07-31T12:50:39;21.70;99.90
26947;DHT22;14501;52.282;10.560;2023-07-31T12:53:05;21.60;99.90
26947;DHT22;14501;52.282;10.560;2023-07-31T12:55:31;21.50;99.90
26947;DHT22;14501;52.282;10.560;2023-07-31T12:57:58;21.50;99.90
26947;DHT22;14501;52.282;10.560;2023-07-31T13:00:23;21.50;99.90
26947;DHT22;14501;52.282;10.560;2023-07-31T13:02:49;21.60;99.90
26947;DHT22;14501;52.282;10.560;2023-07-31T13:05:15;21.70;99.90
26947;DHT22;14501;52.282;10.560;2023-07-31T13:07:40;21.80;99.90
26947;DHT22;14501;52.282;10.560;2023-07-31T13:10:08;21.90;99.90
26947;DHT22;14501;52.282;10.560;2023-07-31T13:12:34;22.00;99.90
26947;DHT22;14501;52.282;10.560;2023-07-31T13:14:59;21.80;99.90
26947;DHT22;14501;52.282;10.560;2023-07-31T13:17:25;21.60;99.90
26947;DHT22;14501;52.282;10.560;2023-07-31T13:19:52;21.60;99.90
26947;DHT22;14501;52.282;10.560;2023-07-31T13:22:18;21.30;99.90
26947;DHT22;14501;52.282;10.560;2023-07-31T13:24:44;21.20;99.90
26947;DHT22;14501;52.282;10.560;2023-07-31T13:27:10;21.00;99.90
26947;DHT22;14501;52.282;10.560;2023-07-31T13:29:35;20.90;99.90
26947;DHT22;14501;52.282;10.560;2023-07-31T13:32:01;20.60;99.90
26947;DHT22;14501;52.282;10.560;2023-07-31T13:34:27;20.50;99.90
26947;DHT22;14501;52.282;10.560;2023-07-31T13:36:54;20.50;99.90
26947;DHT22;14501;52.282;10.560;2023-07-31T13:39:19;20.60;99.90
26947;DHT22;14501;52.282;10.560;2023-07-31T13:41:45;21.00;99.90
26947;DHT22;14501;52.282;10.560;2023-07-31T13:44:10;21.40;99.90
26947;DHT22;14501;52.282;10.560;2023-07-31T13:46:36;21.60;99.90
26947;DHT22;14501;52.282;10.560;2023-07-31T13:49:02;21.60;99.90
26947;DHT22;14501;52.282;10.560;2023-07-31T13:51:27;21.60;99.90
26947;DHT22;14501;52.282;10.560;2023-07-31T13:53:53;21.50;99.90
26947;DHT22;14501;52.282;10.560;2023-07-31T13:56:19;21.20;99.90
26947;DHT22;14501;52.282;10.560;2023-07-31T13:58:45;21.20;99.90
26947;DHT22;14501;52.282;10.560;2023-07-31T14:01:10;21.00;99.90
26947;DHT22;14501;52.282;10.560;2023-07-31T14:03:36;20.90;99.90
26947;DHT22;14501;52.282;10.560;2023-07-31T14:06:02;20.90;99.90
26947;DHT22;14501;52.282;10.560;2023-07-31T14:08:27;20.90;99.90
26947;DHT22;14501;52.282;10.560;2023-07-31T14:10:53;20.90;99.90
26947;DHT22;14501;52.282;10.560;2023-07-31T14:13:18;20.80;99.90
26947;DHT22;14501;52.282;10.560;2023-07-31T14:15:44;21.00;99.90
26947;DHT22;14501;52.282;10.560;2023-07-31T14:18:10;21.10;99.90
26947;DHT22;14501;52.282;10.560;2023-07-31T14:20:35;21.20;99.90
26947;DHT22;14501;52.282;10.560;2023-07-31T14:23:02;21.30;99.90
26947;DHT22;14501;52.282;10.560;2023-07-31T14:25:28;21.20;99.90
26947;DHT22;14501;52.282;10.560;2023-07-31T14:27:53;21.10;99.90
26947;DHT22;14501;52.282;10.560;2023-07-31T14:30:19;21.10;99.90
26947;DHT22;14501;52.282;10.560;2023-07-31T14:32:45;20.90;99.90
26947;DHT22;14501;52.282;10.560;2023-07-31T14:35:11;20.80;99.90
26947;DHT22;14501;52.282;10.560;2023-07-31T14:37:42;20.70;99.90
26947;DHT22;14501;52.282;10.560;2023-07-31T14:40:09;20.60;99.90
26947;DHT22;14501;52.282;10.560;2023-07-31T14:42:36;20.50;99.90
26947;DHT22;14501;52.282;10.560;2023-07-31T14:45:03;20.60;99.90
26947;DHT22;14501;52.282;10.560;2023-07-31T14:47:28;20.90;99.90
26947;DHT22;14501;52.282;10.560;2023-07-31T14:49:56;21.10;99.90
26947;DHT22;14501;52.282;10.560;2023-07-31T14:52:22;21.40;99.90
26947;DHT22;14501;52.282;10.560;2023-07-31T14:54:47;21.80;99.90
26947;DHT22;14501;52.282;10.560;2023-07-31T14:57:13;21.90;99.90
26947;DHT22;14501;52.282;10.560;2023-07-31T14:59:38;21.80;99.90
26947;DHT22;14501;52.282;10.560;2023-07-31T15:02:04;21.80;99.90
26947;DHT22;14501;52.282;10.560;2023-07-31T15:04:30;21.50;99.90
26947;DHT22;14501;52.282;10.560;2023-07-31T15:06:55;21.10;99.90
26947;DHT22;14501;52.282;10.560;2023-07-31T15:09:21;21.10;99.90
26947;DHT22;14501;52.282;10.560;2023-07-31T15:11:47;21.10;99.90
26947;DHT22;14501;52.282;10.560;2023-07-31T15:14:13;21.10;99.90
26947;DHT22;14501;52.282;10.560;2023-07-31T15:16:38;21.40;99.90
26947;DHT22;14501;52.282;10.560;2023-07-31T15:19:04;21.40;99.90
26947;DHT22;14501;52.282;10.560;2023-07-31T15:21:29;21.40;99.90
26947;DHT22;14501;52.282;10.560;2023-07-31T15:23:55;21.40;99.90
26947;DHT22;14501;52.282;10.560;2023-07-31T15:26:21;21.50;99.90
26947;DHT22;14501;52.282;10.560;2023-07-31T15:28:49;21.50;99.90
26947;DHT22;14501;52.282;10.560;2023-07-31T15:31:15;21.50;99.90
26947;DHT22;14501;52.282;10.560;2023-07-31T15:33:41;21.80;99.90
26947;DHT22;14501;52.282;10.560;2023-07-31T15:36:07;21.80;99.90
26947;DHT22;14501;52.282;10.560;2023-07-31T15:38:32;21.80;99.90
26947;DHT22;14501;52.282;10.560;2023-07-31T15:40:58;21.90;99.90
26947;DHT22;14501;52.282;10.560;2023-07-31T15:43:24;21.80;99.90
26947;DHT22;14501;52.282;10.560;2023-07-31T15:45:50;21.50;99.90